createdAt,value
2022-09-30T00:00:53.070Z,6.72
2022-09-30T00:01:53.128Z,6.72
2022-09-30T00:02:53.090Z,6.69
2022-09-30T00:03:53.052Z,6.71
2022-09-30T00:04:53.010Z,6.71
2022-09-30T00:05:53.010Z,6.72
2022-09-30T00:06:52.992Z,6.71
2022-09-30T00:07:52.975Z,6.72
2022-09-30T00:08:52.950Z,6.69
2022-09-30T00:09:52.966Z,6.69
2022-09-30T00:10:52.939Z,6.68
2022-09-30T00:11:52.940Z,6.69
2022-09-30T00:12:52.900Z,6.68
2022-09-30T00:13:52.898Z,6.68
2022-09-30T00:14:52.880Z,6.68
2022-09-30T00:15:52.945Z,6.66
2022-09-30T00:16:52.860Z,6.65
2022-09-30T00:17:52.858Z,6.65
2022-09-30T00:18:52.834Z,6.63
2022-09-30T00:19:52.822Z,6.62
2022-09-30T00:20:52.811Z,6.61
2022-09-30T00:21:52.801Z,6.61
2022-09-30T00:22:52.780Z,6.58
2022-09-30T00:23:52.770Z,6.58
2022-09-30T00:24:52.765Z,6.54
2022-09-30T00:25:52.753Z,6.53
2022-09-30T00:26:52.757Z,6.50
2022-09-30T00:27:52.722Z,6.48
2022-09-30T00:28:52.701Z,6.47
2022-09-30T00:29:52.692Z,6.44
2022-09-30T00:30:52.705Z,6.43
2022-09-30T00:31:52.718Z,6.38
2022-09-30T00:32:52.650Z,6.38
2022-09-30T00:33:52.642Z,6.35
2022-09-30T00:34:52.622Z,6.32
2022-09-30T00:35:52.617Z,6.28
2022-09-30T00:36:52.616Z,6.25
2022-09-30T00:37:52.604Z,6.25
2022-09-30T00:38:52.573Z,6.22
2022-09-30T00:39:52.564Z,6.21
2022-09-30T00:40:52.545Z,6.21
2022-09-30T00:41:52.559Z,6.19
2022-09-30T00:42:52.549Z,6.16
2022-09-30T00:43:52.503Z,6.14
2022-09-30T00:44:52.494Z,6.16
2022-09-30T00:45:52.483Z,6.14
2022-09-30T00:46:52.528Z,6.13
2022-09-30T00:47:52.463Z,6.13
2022-09-30T00:48:52.435Z,6.13
2022-09-30T00:49:52.424Z,6.16
2022-09-30T00:50:52.420Z,6.16
2022-09-30T00:51:52.416Z,6.16
2022-09-30T00:52:52.400Z,6.14
2022-09-30T00:53:52.372Z,6.14
2022-09-30T00:54:52.354Z,6.16
2022-09-30T00:55:52.345Z,6.18
2022-09-30T00:56:52.377Z,6.19
2022-09-30T00:57:52.324Z,6.22
2022-09-30T00:58:52.312Z,6.22
2022-09-30T00:59:52.303Z,6.22
2022-09-30T01:00:52.356Z,6.22
2022-09-30T01:01:52.322Z,6.22
2022-09-30T01:02:52.261Z,6.21
2022-09-30T01:03:52.254Z,6.19
2022-09-30T01:04:52.233Z,6.21
2022-09-30T01:05:52.214Z,6.19
2022-09-30T01:06:52.214Z,6.21
2022-09-30T01:07:52.199Z,6.19
2022-09-30T01:08:52.176Z,6.22
2022-09-30T01:09:52.177Z,6.22
2022-09-30T01:10:52.156Z,6.21
2022-09-30T01:11:52.147Z,6.19
2022-09-30T01:12:52.137Z,6.19
2022-09-30T01:13:52.119Z,6.16
2022-09-30T01:14:52.101Z,6.13
2022-09-30T01:15:52.106Z,6.11
2022-09-30T01:16:52.073Z,6.11
2022-09-30T01:17:52.066Z,6.11
2022-09-30T01:18:52.073Z,6.14
2022-09-30T01:19:52.044Z,6.14
2022-09-30T01:20:52.030Z,6.13
2022-09-30T01:21:52.015Z,6.10
2022-09-30T01:22:52.016Z,6.06
2022-09-30T01:23:51.978Z,6.04
2022-09-30T01:24:51.967Z,6.03
2022-09-30T01:25:51.956Z,6.01
2022-09-30T01:26:51.958Z,6.01
2022-09-30T01:27:51.937Z,6.03
2022-09-30T01:28:51.917Z,6.06
2022-09-30T01:29:51.908Z,6.04
2022-09-30T01:30:51.898Z,6.01
2022-09-30T01:31:59.395Z,5.98
2022-09-30T01:32:51.883Z,6.00
2022-09-30T01:33:51.861Z,6.00
2022-09-30T01:34:51.846Z,5.95
2022-09-30T01:35:51.834Z,5.92
2022-09-30T01:36:51.834Z,5.92
2022-09-30T01:37:51.824Z,5.95
2022-09-30T01:38:51.889Z,6.00
2022-09-30T01:39:51.786Z,6.04
2022-09-30T01:40:52.767Z,6.07
2022-09-30T01:41:51.756Z,6.13
2022-09-30T01:42:51.765Z,6.13
2022-09-30T01:43:51.716Z,6.14
2022-09-30T01:44:51.716Z,6.13
2022-09-30T01:45:51.704Z,6.14
2022-09-30T01:46:51.754Z,6.19
2022-09-30T01:47:51.677Z,6.21
2022-09-30T01:48:51.677Z,6.16
2022-09-30T01:49:51.645Z,6.18
2022-09-30T01:50:51.636Z,6.26
2022-09-30T01:51:51.627Z,6.25
2022-09-30T01:52:51.638Z,6.22
2022-09-30T01:53:51.587Z,6.19
2022-09-30T01:54:51.584Z,6.16
2022-09-30T01:55:51.568Z,6.14
2022-09-30T01:56:51.557Z,6.11
2022-09-30T01:57:51.548Z,6.11
2022-09-30T01:58:51.559Z,6.11
2022-09-30T01:59:51.506Z,6.14
2022-09-30T02:00:51.587Z,6.19
2022-09-30T02:01:51.539Z,6.19
2022-09-30T02:02:51.520Z,6.18
2022-09-30T02:03:51.477Z,6.14
2022-09-30T02:04:51.457Z,6.19
2022-09-30T02:05:51.442Z,6.16
2022-09-30T02:06:51.430Z,6.11
2022-09-30T02:07:51.409Z,6.06
2022-09-30T02:08:51.419Z,5.98
2022-09-30T02:09:51.397Z,5.93
2022-09-30T02:10:51.387Z,5.89
2022-09-30T02:11:51.357Z,5.86
2022-09-30T02:12:51.364Z,5.88
2022-09-30T02:13:51.349Z,5.86
2022-09-30T02:14:51.327Z,5.82
2022-09-30T02:15:51.357Z,5.77
2022-09-30T02:16:51.299Z,5.77
2022-09-30T02:17:51.288Z,5.74
2022-09-30T02:18:51.282Z,5.77
2022-09-30T02:19:51.283Z,5.75
2022-09-30T02:20:51.249Z,5.71
2022-09-30T02:21:51.229Z,5.71
2022-09-30T02:22:51.250Z,5.71
2022-09-30T02:23:51.211Z,5.70
2022-09-30T02:24:51.196Z,5.70
2022-09-30T02:25:51.180Z,5.68
2022-09-30T02:26:51.169Z,5.66
2022-09-30T02:27:51.150Z,5.66
2022-09-30T02:28:51.161Z,5.66
2022-09-30T02:29:51.119Z,5.66
2022-09-30T02:30:51.120Z,5.68
2022-09-30T02:31:51.142Z,5.68
2022-09-30T02:32:51.092Z,5.70
2022-09-30T02:33:51.080Z,5.71
2022-09-30T02:34:51.072Z,5.77
2022-09-30T02:35:51.043Z,5.85
2022-09-30T02:36:51.040Z,5.88
2022-09-30T02:37:51.029Z,5.89
2022-09-30T02:38:51.022Z,5.86
2022-09-30T02:39:50.998Z,5.82
2022-09-30T02:40:51.006Z,5.77
2022-09-30T02:41:50.972Z,5.74
2022-09-30T02:42:50.961Z,5.70
2022-09-30T02:43:50.963Z,5.64
2022-09-30T02:44:50.948Z,5.60
2022-09-30T02:45:50.921Z,5.63
2022-09-30T02:46:50.955Z,5.63
2022-09-30T02:47:50.893Z,5.63
2022-09-30T02:48:50.901Z,5.63
2022-09-30T02:49:50.892Z,5.60
2022-09-30T02:50:50.863Z,5.56
2022-09-30T02:51:50.844Z,5.53
2022-09-30T02:52:50.834Z,5.50
2022-09-30T02:53:50.854Z,5.46
2022-09-30T02:54:50.825Z,5.49
2022-09-30T02:55:50.794Z,5.49
2022-09-30T02:56:50.781Z,5.50
2022-09-30T02:57:50.792Z,5.53
2022-09-30T02:58:50.772Z,5.57
2022-09-30T02:59:50.744Z,5.55
2022-09-30T03:00:50.774Z,5.50
2022-09-30T03:01:50.767Z,5.45
2022-09-30T03:02:50.706Z,5.40
2022-09-30T03:03:50.693Z,5.38
2022-09-30T03:04:50.676Z,5.37
2022-09-30T03:05:50.664Z,5.37
2022-09-30T03:06:50.659Z,5.37
2022-09-30T03:07:50.632Z,5.37
2022-09-30T03:08:50.636Z,5.35
2022-09-30T03:09:50.655Z,5.34
2022-09-30T03:10:50.595Z,5.32
2022-09-30T03:11:50.589Z,5.32
2022-09-30T03:12:50.573Z,5.32
2022-09-30T03:13:50.578Z,5.28
2022-09-30T03:14:50.546Z,5.25
2022-09-30T03:15:50.591Z,5.25
2022-09-30T03:16:50.518Z,5.25
2022-09-30T03:17:50.496Z,5.20
2022-09-30T03:18:50.506Z,5.20
2022-09-30T03:19:50.495Z,5.16
2022-09-30T03:20:50.473Z,5.14
2022-09-30T03:21:50.446Z,5.13
2022-09-30T03:22:50.446Z,5.10
2022-09-30T03:23:50.424Z,5.09
2022-09-30T03:24:50.425Z,5.10
2022-09-30T03:25:50.411Z,5.12
2022-09-30T03:26:50.385Z,5.12
2022-09-30T03:27:50.383Z,5.09
2022-09-30T03:28:50.377Z,5.12
2022-09-30T03:29:50.358Z,5.13
2022-09-30T03:30:50.335Z,5.10
2022-09-30T03:31:50.368Z,5.10
2022-09-30T03:32:50.317Z,5.05
2022-09-30T03:33:50.296Z,5.02
2022-09-30T03:34:50.307Z,5.02
2022-09-30T03:35:50.282Z,5.02
2022-09-30T03:36:50.257Z,5.02
2022-09-30T03:37:50.246Z,5.04
2022-09-30T03:38:50.226Z,5.02
2022-09-30T03:39:50.226Z,5.04
2022-09-30T03:40:50.197Z,5.07
2022-09-30T03:41:50.189Z,5.04
2022-09-30T03:42:50.179Z,4.98
2022-09-30T03:43:50.166Z,4.95
2022-09-30T03:44:50.161Z,4.95
2022-09-30T03:45:50.145Z,4.95
2022-09-30T03:46:50.211Z,4.96
2022-09-30T03:47:50.107Z,4.96
2022-09-30T03:48:50.120Z,4.96
2022-09-30T03:49:50.138Z,4.99
2022-09-30T04:03:30.408Z,5.31
2022-09-30T04:04:30.400Z,5.28
2022-09-30T04:05:30.440Z,5.30
2022-09-30T04:06:30.360Z,5.27
2022-09-30T04:07:30.431Z,5.28
2022-09-30T04:08:33.749Z,5.25
2022-09-30T04:09:30.389Z,5.27
2022-09-30T04:10:30.378Z,5.28
2022-09-30T04:11:30.349Z,5.23
2022-09-30T04:12:30.356Z,5.27
2022-09-30T04:13:30.367Z,5.32
2022-09-30T04:14:30.283Z,5.31
2022-09-30T04:15:30.310Z,5.32
2022-09-30T04:16:30.311Z,5.30
2022-09-30T04:17:30.296Z,5.31
2022-09-30T04:18:30.288Z,5.32
2022-09-30T04:19:30.208Z,5.32
2022-09-30T04:20:30.196Z,5.37
2022-09-30T04:21:30.177Z,5.40
2022-09-30T04:22:30.228Z,5.40
2022-09-30T04:23:30.228Z,5.41
2022-09-30T04:24:30.117Z,5.41
2022-09-30T04:25:30.135Z,5.43
2022-09-30T04:26:30.148Z,5.45
2022-09-30T04:27:32.130Z,5.46
2022-09-30T04:28:30.068Z,5.46
2022-09-30T04:29:30.178Z,5.49
2022-09-30T04:30:33.409Z,5.52
2022-09-30T04:31:30.153Z,5.50
2022-09-30T04:32:30.091Z,5.50
2022-09-30T04:33:31.019Z,5.49
2022-09-30T04:34:30.001Z,5.46
2022-09-30T04:35:30.032Z,5.45
2022-09-30T04:36:30.019Z,5.46
2022-09-30T04:37:30.021Z,5.46
2022-09-30T04:38:29.930Z,5.46
2022-09-30T04:39:29.932Z,5.46
2022-09-30T04:40:29.930Z,5.48
2022-09-30T04:41:29.940Z,5.49
2022-09-30T04:42:29.877Z,5.50
2022-09-30T04:43:29.872Z,5.49
2022-09-30T04:44:29.851Z,5.50
2022-09-30T04:45:29.916Z,5.49
2022-09-30T04:46:29.820Z,5.46
2022-09-30T04:47:29.891Z,5.35
2022-09-30T04:48:29.893Z,5.35
2022-09-30T04:49:29.892Z,5.38
2022-09-30T04:50:29.791Z,5.37
2022-09-30T04:51:29.810Z,5.41
2022-09-30T04:52:29.822Z,5.49
2022-09-30T04:53:29.821Z,5.48
2022-09-30T04:54:29.835Z,5.49
2022-09-30T04:55:29.727Z,5.53
2022-09-30T04:56:29.741Z,5.53
2022-09-30T04:57:29.759Z,5.52
2022-09-30T04:58:33.398Z,5.49
2022-09-30T04:59:30.690Z,5.49
2022-09-30T05:00:29.699Z,5.49
2022-09-30T05:01:29.684Z,5.48
2022-09-30T05:02:29.753Z,5.50
2022-09-30T05:03:29.691Z,5.49
2022-09-30T05:04:29.692Z,5.52
2022-09-30T05:05:29.582Z,5.48
2022-09-30T05:06:29.602Z,5.45
2022-09-30T05:07:29.620Z,5.41
2022-09-30T05:08:30.544Z,5.37
2022-09-30T05:09:29.701Z,5.34
2022-09-30T05:10:29.510Z,5.30
2022-09-30T05:11:29.547Z,5.28
2022-09-30T05:12:29.636Z,5.25
2022-09-30T05:13:29.577Z,5.27
2022-09-30T05:14:29.443Z,5.28
2022-09-30T05:15:29.442Z,5.30
2022-09-30T05:16:29.938Z,5.31
2022-09-30T05:17:29.502Z,5.30
2022-09-30T05:18:29.493Z,5.25
2022-09-30T05:19:30.422Z,5.22
2022-09-30T05:20:29.373Z,5.20
2022-09-30T05:21:29.404Z,5.22
2022-09-30T05:22:29.418Z,5.22
2022-09-30T05:23:29.423Z,5.27
2022-09-30T05:24:29.423Z,5.27
2022-09-30T05:25:29.363Z,5.27
2022-09-30T05:26:29.334Z,5.30
2022-09-30T05:27:29.473Z,5.31
2022-09-30T05:28:29.346Z,5.34
2022-09-30T05:29:29.364Z,5.34
2022-09-30T05:30:29.244Z,5.32
2022-09-30T05:31:29.308Z,5.31
2022-09-30T05:32:29.292Z,5.31
2022-09-30T05:33:29.284Z,5.31
2022-09-30T05:34:29.284Z,5.30
2022-09-30T05:35:29.230Z,5.31
2022-09-30T05:36:29.214Z,5.30
2022-09-30T05:37:29.224Z,5.30
2022-09-30T05:38:29.228Z,5.30
2022-09-30T05:39:29.114Z,5.25
2022-09-30T05:40:29.116Z,5.19
2022-09-30T05:41:36.608Z,5.12
2022-09-30T05:42:36.579Z,5.07
2022-09-30T05:43:29.067Z,5.07
2022-09-30T05:45:30.327Z,5.07
2022-09-30T05:46:30.424Z,5.04
2022-09-30T05:47:30.288Z,5.04
2022-09-30T05:48:30.270Z,5.05
2022-09-30T05:49:30.258Z,5.07
2022-09-30T05:50:38.923Z,5.09
2022-09-30T05:51:30.241Z,5.13
2022-09-30T05:52:30.236Z,5.13
2022-09-30T05:53:30.199Z,5.16
2022-09-30T05:54:30.181Z,5.19
2022-09-30T05:55:33.666Z,5.23
2022-09-30T05:56:37.661Z,5.25
2022-09-30T05:57:37.740Z,5.25
2022-09-30T05:58:37.646Z,5.27
2022-09-30T05:59:37.642Z,5.32
2022-09-30T06:00:30.121Z,5.37
2022-09-30T06:01:38.643Z,5.37
2022-09-30T06:02:32.224Z,5.38
2022-09-30T06:03:30.066Z,5.40
2022-09-30T06:04:30.065Z,5.43
2022-09-30T06:05:31.066Z,5.46
2022-09-30T06:06:37.533Z,5.50
2022-09-30T06:07:30.021Z,5.52
2022-09-30T06:08:30.007Z,5.55
2022-09-30T06:09:31.095Z,5.56
2022-09-30T06:10:33.242Z,5.59
2022-09-30T06:11:29.973Z,5.63
2022-09-30T06:12:29.960Z,5.64
2022-09-30T06:13:37.470Z,5.67
2022-09-30T06:14:30.924Z,5.70
2022-09-30T06:15:38.597Z,5.70
2022-09-30T06:16:37.463Z,5.73
2022-09-30T06:17:29.884Z,5.71
2022-09-30T06:18:29.873Z,5.70
2022-09-30T06:19:29.873Z,5.71
2022-09-30T06:20:29.867Z,5.68
2022-09-30T06:21:29.844Z,5.68
2022-09-30T06:22:29.826Z,5.70
2022-09-30T06:23:29.824Z,5.71
2022-09-30T06:24:29.794Z,5.77
2022-09-30T06:25:29.813Z,5.81
2022-09-30T06:26:29.772Z,5.85
2022-09-30T06:27:29.764Z,5.86
2022-09-30T06:28:30.762Z,5.89
2022-09-30T06:29:29.745Z,5.96
2022-09-30T06:30:34.936Z,6.04
2022-09-30T06:31:30.750Z,6.07
2022-09-30T06:32:29.786Z,6.09
2022-09-30T06:33:29.804Z,6.10
2022-09-30T06:34:30.725Z,6.13
2022-09-30T06:35:29.748Z,6.13
2022-09-30T06:36:29.685Z,6.13
2022-09-30T06:37:29.744Z,6.14
2022-09-30T06:38:29.628Z,6.13
2022-09-30T06:39:29.616Z,6.07
2022-09-30T06:40:29.593Z,6.11
2022-09-30T06:41:29.845Z,6.16
2022-09-30T06:42:29.654Z,6.18
2022-09-30T06:43:29.715Z,6.21
2022-09-30T06:44:29.584Z,6.25
2022-09-30T06:45:32.935Z,6.29
2022-09-30T06:46:31.787Z,6.28
2022-09-30T06:47:29.625Z,6.25
2022-09-30T06:48:37.736Z,6.25
2022-09-30T06:49:41.620Z,6.26
2022-09-30T06:50:30.556Z,6.30
2022-09-30T06:51:29.467Z,6.32
2022-09-30T06:52:29.444Z,6.38
2022-09-30T06:53:29.533Z,6.36
2022-09-30T06:54:29.430Z,6.35
2022-09-30T06:55:29.467Z,6.36
2022-09-30T06:56:29.550Z,6.40
2022-09-30T06:57:29.374Z,6.47
2022-09-30T06:58:29.450Z,6.53
2022-09-30T06:59:29.373Z,6.59
2022-09-30T07:00:29.337Z,6.58
2022-09-30T07:01:29.490Z,6.58
2022-09-30T07:02:29.431Z,6.58
2022-09-30T07:03:30.320Z,6.58
2022-09-30T07:04:29.298Z,6.56
2022-09-30T07:05:29.288Z,6.56
2022-09-30T07:06:29.271Z,6.62
2022-09-30T07:07:29.237Z,6.63
2022-09-30T07:08:29.249Z,6.66
2022-09-30T07:09:29.266Z,6.76
2022-09-30T07:10:29.227Z,6.77
2022-09-30T07:11:29.210Z,6.73
2022-09-30T07:12:29.284Z,6.68
2022-09-30T07:13:29.167Z,6.68
2022-09-30T07:14:29.159Z,6.66
2022-09-30T07:15:29.169Z,6.65
2022-09-30T07:16:29.333Z,6.62
2022-09-30T07:17:29.184Z,6.62
2022-09-30T07:18:29.100Z,6.65
2022-09-30T07:19:29.208Z,6.68
2022-09-30T07:20:29.129Z,6.71
2022-09-30T07:21:29.116Z,6.69
2022-09-30T07:22:29.030Z,6.76
2022-09-30T07:23:29.030Z,6.79
2022-09-30T07:24:29.010Z,6.84
2022-09-30T07:25:32.251Z,6.87
2022-09-30T07:26:28.999Z,6.91
2022-09-30T07:27:28.979Z,6.97
2022-09-30T07:28:28.968Z,7.04
2022-09-30T07:29:36.686Z,7.12
2022-09-30T07:30:30.010Z,7.13
2022-09-30T07:31:34.105Z,7.16
2022-09-30T07:32:30.049Z,7.15
2022-09-30T07:33:28.981Z,7.09
2022-09-30T07:34:28.891Z,6.95
2022-09-30T07:35:28.922Z,6.81
2022-09-30T07:36:32.702Z,6.73
2022-09-30T07:37:28.884Z,6.71
2022-09-30T07:38:28.838Z,6.72
2022-09-30T07:39:28.822Z,6.76
2022-09-30T07:40:28.855Z,6.73
2022-09-30T07:41:28.831Z,6.71
2022-09-30T07:42:28.780Z,6.66
2022-09-30T07:43:28.773Z,6.62
2022-09-30T07:44:28.755Z,6.62
2022-09-30T07:45:28.792Z,6.62
2022-09-30T07:46:28.816Z,6.62
2022-09-30T07:47:28.791Z,6.63
2022-09-30T07:48:28.701Z,6.59
2022-09-30T07:49:28.699Z,6.54
2022-09-30T07:50:28.901Z,6.48
2022-09-30T07:51:28.780Z,6.46
2022-09-30T07:52:29.723Z,6.46
2022-09-30T07:53:29.743Z,6.36
2022-09-30T07:54:30.689Z,6.38
2022-09-30T07:55:28.703Z,6.50
2022-09-30T07:56:41.061Z,6.66
2022-09-30T07:57:29.583Z,6.84
2022-09-30T07:58:29.594Z,6.99
2022-09-30T07:59:29.257Z,7.08
2022-09-30T08:00:42.228Z,7.22
2022-09-30T08:01:29.750Z,7.29
2022-09-30T08:02:28.616Z,7.34
2022-09-30T08:03:28.574Z,7.41
2022-09-30T08:04:28.586Z,7.45
2022-09-30T08:05:29.545Z,7.49
2022-09-30T08:06:28.494Z,7.53
2022-09-30T08:07:29.484Z,7.56
2022-09-30T08:08:51.586Z,7.62
2022-09-30T08:09:28.783Z,7.71
2022-09-30T08:10:33.787Z,7.82
2022-09-30T08:11:28.417Z,7.90
2022-09-30T08:12:28.497Z,7.93
2022-09-30T08:13:28.386Z,8.00
2022-09-30T08:14:28.398Z,8.10
2022-09-30T08:15:28.372Z,8.17
2022-09-30T08:16:28.408Z,8.18
2022-09-30T08:17:28.367Z,8.15
2022-09-30T08:18:28.376Z,8.03
2022-09-30T08:19:28.529Z,7.99
2022-09-30T08:20:28.394Z,8.00
2022-09-30T08:21:29.457Z,8.00
2022-09-30T08:22:28.426Z,7.97
2022-09-30T08:23:28.306Z,7.94
2022-09-30T08:24:28.352Z,7.99
2022-09-30T08:25:29.296Z,8.07
2022-09-30T08:26:28.227Z,8.11
2022-09-30T08:27:28.308Z,8.15
2022-09-30T08:28:28.196Z,8.21
2022-09-30T08:29:54.427Z,8.26
2022-09-30T08:30:29.168Z,8.30
2022-09-30T08:31:31.005Z,8.35
2022-09-30T08:32:28.128Z,8.39
2022-09-30T08:33:28.159Z,8.42
2022-09-30T08:34:28.217Z,8.42
2022-09-30T08:35:28.911Z,8.44
2022-09-30T08:36:28.090Z,8.47
2022-09-30T08:37:28.108Z,8.51
2022-09-30T08:38:28.099Z,8.55
2022-09-30T08:39:29.609Z,8.54
2022-09-30T08:40:28.821Z,8.54
2022-09-30T08:41:28.129Z,8.47
2022-09-30T08:42:49.092Z,8.42
2022-09-30T08:43:29.081Z,8.39
2022-09-30T08:44:28.602Z,8.40
2022-09-30T08:45:28.153Z,8.45
2022-09-30T08:46:28.098Z,8.39
2022-09-30T08:47:29.061Z,8.33
2022-09-30T08:48:27.979Z,8.20
2022-09-30T08:49:27.899Z,8.12
2022-09-30T08:50:27.899Z,8.12
2022-09-30T08:51:27.991Z,8.22
2022-09-30T08:52:30.897Z,8.30
2022-09-30T08:53:28.854Z,8.37
2022-09-30T08:54:27.921Z,8.40
2022-09-30T08:55:27.831Z,8.37
2022-09-30T08:56:28.048Z,8.44
2022-09-30T08:57:27.861Z,8.53
2022-09-30T08:58:28.565Z,8.54
2022-09-30T08:59:28.557Z,8.58
2022-09-30T09:00:28.807Z,8.55
2022-09-30T09:01:27.888Z,8.47
2022-09-30T09:02:27.796Z,8.32
2022-09-30T09:03:29.512Z,8.30
2022-09-30T09:04:32.306Z,8.36
2022-09-30T09:05:28.779Z,8.35
2022-09-30T09:06:27.923Z,8.40
2022-09-30T09:07:28.786Z,8.48
2022-09-30T09:08:28.700Z,8.55
2022-09-30T09:09:28.094Z,8.55
2022-09-30T09:10:27.964Z,8.58
2022-09-30T09:11:27.723Z,8.68
2022-09-30T09:12:27.634Z,8.73
2022-09-30T09:13:27.623Z,8.78
2022-09-30T09:14:27.577Z,8.86
2022-09-30T09:15:28.667Z,8.87
2022-09-30T09:16:29.696Z,8.83
2022-09-30T09:17:27.554Z,8.76
2022-09-30T09:18:27.672Z,8.81
2022-09-30T09:19:27.515Z,8.84
2022-09-30T09:20:28.755Z,8.81
2022-09-30T09:21:29.547Z,8.73
2022-09-30T09:22:28.115Z,8.84
2022-09-30T09:23:27.497Z,8.99
2022-09-30T09:24:28.545Z,9.15
2022-09-30T09:25:27.505Z,9.20
2022-09-30T09:26:29.502Z,9.27
2022-09-30T09:27:31.828Z,9.30
2022-09-30T09:28:27.538Z,9.28
2022-09-30T09:29:27.498Z,9.30
2022-09-30T09:30:27.407Z,9.23
2022-09-30T09:31:27.588Z,9.16
2022-09-30T09:32:27.358Z,9.21
2022-09-30T09:33:27.337Z,9.35
2022-09-30T09:34:27.337Z,9.60
2022-09-30T09:35:27.342Z,9.94
2022-09-30T09:36:27.289Z,10.26
2022-09-30T09:37:27.287Z,10.51
2022-09-30T09:38:27.278Z,10.58
2022-09-30T09:39:27.258Z,10.66
2022-09-30T09:40:27.300Z,10.56
2022-09-30T09:41:27.244Z,10.34
2022-09-30T09:42:27.284Z,10.25
2022-09-30T09:43:29.443Z,10.06
2022-09-30T09:44:27.189Z,10.12
2022-09-30T09:45:27.198Z,10.17
2022-09-30T09:46:27.294Z,10.15
2022-09-30T09:47:27.148Z,10.14
2022-09-30T10:03:57.080Z,11.52
2022-09-30T10:04:57.088Z,11.62
2022-09-30T10:05:57.854Z,11.54
2022-09-30T10:06:57.980Z,11.36
2022-09-30T10:07:57.340Z,11.25
2022-09-30T10:08:58.110Z,11.32
2022-09-30T10:09:57.554Z,11.54
2022-09-30T10:10:57.297Z,11.82
2022-09-30T10:11:57.892Z,12.05
2022-09-30T10:12:58.013Z,12.24
2022-09-30T10:13:58.410Z,12.46
2022-09-30T10:14:56.951Z,12.70
2022-09-30T10:15:56.965Z,12.96
2022-09-30T10:16:56.931Z,13.20
2022-09-30T10:17:56.952Z,13.43
2022-09-30T10:18:56.950Z,13.62
2022-09-30T10:19:56.922Z,13.54
2022-09-30T10:20:56.871Z,13.61
2022-09-30T10:21:57.490Z,13.55
2022-09-30T10:22:56.891Z,13.55
2022-09-30T10:23:57.915Z,13.49
2022-09-30T10:24:58.075Z,13.51
2022-09-30T10:25:56.886Z,13.56
2022-09-30T10:26:57.866Z,13.49
2022-09-30T10:27:56.887Z,13.49
2022-09-30T10:28:56.815Z,13.49
2022-09-30T10:29:56.778Z,13.46
2022-09-30T10:30:56.725Z,13.56
2022-09-30T10:31:59.663Z,13.76
2022-09-30T10:32:56.693Z,13.92
2022-09-30T10:33:56.700Z,14.02
2022-09-30T10:34:56.799Z,14.17
2022-09-30T10:35:56.775Z,14.28
2022-09-30T10:36:56.640Z,14.43
2022-09-30T10:37:56.674Z,14.57
2022-09-30T10:38:57.569Z,14.81
2022-09-30T10:39:57.684Z,14.99
2022-09-30T10:40:56.587Z,14.84
2022-09-30T10:41:56.690Z,15.05
2022-09-30T10:42:56.576Z,15.31
2022-09-30T10:43:56.576Z,15.64
2022-09-30T10:44:56.564Z,15.94
2022-09-30T10:46:21.317Z,16.20
2022-09-30T10:46:57.539Z,16.27
2022-09-30T10:47:56.507Z,16.27
2022-09-30T10:48:56.487Z,16.30
2022-09-30T10:49:56.519Z,16.48
2022-09-30T10:50:56.491Z,16.92
2022-09-30T10:51:56.465Z,17.57
2022-09-30T10:52:56.469Z,18.33
2022-09-30T10:53:56.421Z,19.02
2022-09-30T10:54:56.523Z,19.17
2022-09-30T10:55:56.489Z,19.33
2022-09-30T10:56:56.399Z,19.58
2022-09-30T10:57:56.400Z,19.69
2022-09-30T10:58:56.355Z,20.05
2022-09-30T10:59:57.380Z,20.23
2022-09-30T11:00:56.360Z,20.66
2022-09-30T11:01:57.620Z,21.35
2022-09-30T11:02:56.405Z,21.83
2022-09-30T11:03:56.374Z,21.97
2022-09-30T11:04:56.301Z,22.13
2022-09-30T11:05:56.261Z,22.50
2022-09-30T11:06:56.250Z,22.59
2022-09-30T11:07:56.276Z,22.68
2022-09-30T11:08:56.231Z,22.82
2022-09-30T11:09:56.211Z,22.92
2022-09-30T11:10:56.201Z,23.02
2022-09-30T11:11:56.206Z,22.78
2022-09-30T11:12:56.180Z,22.44
2022-09-30T11:13:56.161Z,22.13
2022-09-30T11:14:56.164Z,21.72
2022-09-30T11:15:56.209Z,21.50
2022-09-30T11:16:56.135Z,21.51
2022-09-30T11:17:56.095Z,21.53
2022-09-30T11:18:56.094Z,21.59
2022-09-30T11:19:56.106Z,21.39
2022-09-30T11:20:56.072Z,21.38
2022-09-30T11:21:56.053Z,21.09
2022-09-30T11:22:56.035Z,21.01
2022-09-30T11:23:56.249Z,20.91
2022-09-30T11:24:56.033Z,20.99
2022-09-30T11:25:56.019Z,21.01
2022-09-30T11:26:55.985Z,21.35
2022-09-30T11:27:56.182Z,21.71
2022-09-30T11:28:55.966Z,22.02
2022-09-30T11:29:56.071Z,22.38
2022-09-30T11:30:55.944Z,22.62
2022-09-30T11:31:56.069Z,23.05
2022-09-30T11:33:18.717Z,23.15
2022-09-30T11:33:55.888Z,22.89
2022-09-30T11:34:55.976Z,22.57
2022-09-30T11:35:55.875Z,22.80
2022-09-30T11:36:56.772Z,22.60
2022-09-30T11:37:55.998Z,22.50
2022-09-30T11:38:57.089Z,22.53
2022-09-30T11:39:55.901Z,22.65
2022-09-30T11:40:55.941Z,22.72
2022-09-30T11:41:55.887Z,22.90
2022-09-30T11:42:55.999Z,22.87
2022-09-30T11:43:56.840Z,22.56
2022-09-30T11:44:57.762Z,22.22
2022-09-30T11:45:55.849Z,21.99
2022-09-30T11:46:55.752Z,21.97
2022-09-30T11:47:55.732Z,21.83
2022-09-30T11:48:55.736Z,21.78
2022-09-30T11:49:57.713Z,21.11
2022-09-30T11:50:56.824Z,20.83
2022-09-30T11:51:55.784Z,20.59
2022-09-30T11:52:55.653Z,20.71
2022-09-30T11:53:55.674Z,20.93
2022-09-30T11:54:55.733Z,21.61
2022-09-30T11:55:57.656Z,21.91
2022-09-30T11:56:55.614Z,22.02
2022-09-30T11:57:55.595Z,21.98
2022-09-30T11:58:55.565Z,22.09
2022-09-30T11:59:55.615Z,21.81
2022-09-30T12:00:55.655Z,21.34
2022-09-30T12:01:55.624Z,21.20
2022-09-30T12:02:55.929Z,21.48
2022-09-30T12:03:55.657Z,21.94
2022-09-30T12:04:56.684Z,22.29
2022-09-30T12:05:55.576Z,22.62
2022-09-30T12:06:55.469Z,22.34
2022-09-30T12:07:55.478Z,21.97
2022-09-30T12:08:55.495Z,22.06
2022-09-30T12:09:56.781Z,22.25
2022-09-30T12:10:56.499Z,22.31
2022-09-30T12:11:55.586Z,21.81
2022-09-30T12:12:56.070Z,21.53
2022-09-30T12:13:55.444Z,21.39
2022-09-30T12:14:56.541Z,21.14
2022-09-30T12:15:55.411Z,20.66
2022-09-30T12:16:55.427Z,20.33
2022-09-30T12:17:55.337Z,20.18
2022-09-30T12:18:55.340Z,20.15
2022-09-30T12:19:55.383Z,19.72
2022-09-30T12:20:57.166Z,19.14
2022-09-30T12:21:55.490Z,18.70
2022-09-30T12:22:55.560Z,18.87
2022-09-30T12:27:18.466Z,20.10
2022-09-30T12:28:19.203Z,19.94
2022-09-30T12:29:18.413Z,20.10
2022-09-30T12:30:19.503Z,20.39
2022-09-30T12:31:18.293Z,20.65
2022-09-30T12:32:20.346Z,20.83
2022-09-30T12:33:18.228Z,20.69
2022-09-30T12:34:18.256Z,20.47
2022-09-30T12:35:18.198Z,19.95
2022-09-30T12:36:25.394Z,19.32
2022-09-30T12:37:21.272Z,18.18
2022-09-30T12:38:18.735Z,17.70
2022-09-30T12:39:19.927Z,17.13
2022-09-30T12:40:19.197Z,16.75
2022-09-30T12:41:19.948Z,16.50
2022-09-30T12:42:18.258Z,16.49
2022-09-30T12:43:18.655Z,16.62
2022-09-30T12:44:18.000Z,16.83
2022-09-30T12:45:18.096Z,16.98
2022-09-30T12:46:19.235Z,17.20
2022-09-30T12:47:19.097Z,17.22
2022-09-30T12:48:19.874Z,17.32
2022-09-30T12:49:20.333Z,17.51
2022-09-30T12:50:17.946Z,17.46
2022-09-30T12:51:17.971Z,17.23
2022-09-30T12:52:18.081Z,17.06
2022-09-30T12:53:19.166Z,16.86
2022-09-30T12:54:19.633Z,16.68
2022-09-30T12:55:19.512Z,16.65
2022-09-30T12:56:18.651Z,16.45
2022-09-30T12:57:17.933Z,16.49
2022-09-30T12:58:19.847Z,16.44
2022-09-30T12:59:17.877Z,16.45
2022-09-30T13:00:17.862Z,16.55
2022-09-30T13:01:17.894Z,16.80
2022-09-30T13:02:17.926Z,17.00
2022-09-30T13:03:17.844Z,17.35
2022-09-30T13:04:18.446Z,17.73
2022-09-30T13:05:18.846Z,17.99
2022-09-30T13:06:21.004Z,17.88
2022-09-30T13:07:18.636Z,17.81
2022-09-30T13:08:21.453Z,17.50
2022-09-30T13:09:19.532Z,17.11
2022-09-30T13:10:17.738Z,16.93
2022-09-30T13:11:17.698Z,16.85
2022-09-30T13:12:18.123Z,16.83
2022-09-30T13:13:17.717Z,16.88
2022-09-30T13:14:19.448Z,16.81
2022-09-30T13:15:18.020Z,16.99
2022-09-30T13:16:17.719Z,17.25
2022-09-30T13:17:18.170Z,17.17
2022-09-30T13:18:17.712Z,17.23
2022-09-30T13:19:17.904Z,17.64
2022-09-30T13:20:17.581Z,18.03
2022-09-30T13:21:17.550Z,18.28
2022-09-30T13:23:27.758Z,18.68
2022-09-30T13:24:27.861Z,18.72
2022-09-30T13:25:27.832Z,18.77
2022-09-30T13:26:28.320Z,18.70
2022-09-30T13:27:27.747Z,17.95
2022-09-30T13:28:29.914Z,17.46
2022-09-30T13:29:27.793Z,17.07
2022-09-30T13:30:32.244Z,16.89
2022-09-30T13:31:28.711Z,16.83
2022-09-30T13:32:27.675Z,16.83
2022-09-30T13:33:27.616Z,16.70
2022-09-30T13:34:28.636Z,16.50
2022-09-30T13:35:27.695Z,16.48
2022-09-30T13:36:28.035Z,16.48
2022-09-30T13:37:27.581Z,16.48
2022-09-30T13:38:27.607Z,16.58
2022-09-30T13:39:27.657Z,16.75
2022-09-30T13:40:43.577Z,16.74
2022-09-30T13:41:28.517Z,16.92
2022-09-30T13:42:27.523Z,17.13
2022-09-30T13:43:27.556Z,17.28
2022-09-30T13:44:27.577Z,17.55